Portada
METAR-TAF:

METAR-TAF

Aeroports :

Weno, Micronèsia

latitud: 07-28N, longitud: 151-51E, altitud: 3 m

Observació

L'informe es va fer fa 1 hora i 0 minuts, a les 07:52 UTC
Vent 8 kt del Nord-Est
Temperatura 29°C
Humitat 84%
Pressió 1008 hPa
Visibilitat: 24.1 km
Núvols disperses a una alçada de 1400 ft, Cumulonimbus.
Cel ennuvolat a una alçada de 12000 ft
Cel cobert a una alçada de 28000 ft

METAR: PTKK 020752Z 04008KT 15SM SCT014CB BKN120 OVC280 29/26 A2978 RMK CB ALQDS MOV SW SLP084 T02860258

Hora: 18:52 (08:52 UTC)

Pronòstic

L'informe es va fer fa 3 hores i 23 minuts, a les 05:29 UTC
Pronòstic vàlid del 02 a les 06 UTC al 03 a les 06 UTC
Vent 8 kt del Nord/Nord-Est
Visibilitat: 10 km
Núvols disperses a una alçada de 1400 ft
A partir de les 02 a les 0800 UTC
Vent 11 kt del Est/Nord-Est
Visibilitat: 10 km
Escasses núvols a una alçada de 1800 ft
xàfecs en les proximitats

TAF: PTKK 020529Z 0206/0306 03008KT P6SM SCT014 FM020800 06011KT P6SM VCSH FEW018

Observacions i pronòstics meteorològics de més de 4000 aeroports (METAR i TAF).

Les estacions disponibles són els punts grocs i vermells al mapa.

Posi el ratolí al punt desitjat per veure el nom de l'estació.

Feu clic per veure les observacions i els pronòstics meteorològics.

Per canviar el mapa: feu clic els botons verds amb una creu de color negre per apropar; al botó verd amb un guió per allunyar la imatge; o en les fletxes verdes per a mapes adjacents.


METAR-TAF: